Airfield :







YOU CAN JOIN US ON...

 
LOGIN :

Register | Disclaimer

   EN    FR    IT 

 









Legend :    VFR   Marginal VFR   IFR   Intensive IFR   Very Intensive IFR
Visi :
Ceiling :
>= 8 km
>= 3000ft
5 to 8 km
1000 to 3000 ft
1500m to 5 km
500 to 1000 ft
800 to 1500m
200 to 500 ft
< 800m
< 200 ft
Symbols :   Thunderstorms  Fog  Heavy snow  Heavy precipitations  Wind > 20 kt






- Airport Elevation : 787 ft
- IATA code : RUT


KRUT - Rutland - Southern Vermont Regional

CURRENT METAR :
  • 291356Z AUTO 19008KT 10SM BKN028 BKN037 OVC047 25/21 A2996 RMK AO2 SLP135 T02500206 $

EXPIRED METARs :
  • 291327Z AUTO 16005KT 10SM FEW026 SCT035 BKN060 24/21 A2997 RMK AO2 $
  • 291256Z AUTO 19006KT 10SM OVC028 24/21 A2998 RMK AO2 SLP143 T02390206 $
  • 291215Z AUTO VRB05KT 10SM OVC028 23/21 A2998 RMK AO2 $
  • 291156Z AUTO VRB03KT 10SM OVC030 23/21 A2999 RMK AO2 SLP145 T02280206 10228 20206 53002 $

TAF KRUT
Valid from the 29 at 12:00 until the 30 at 12:00 UTC


291120Z 2912/3012 19006KT P6SM BKN040
FM291900 20011KT P6SM -SHRA VCTS BKN045CB
FM300300 19010KT P6SM -SHRA SCT025 BKN040
FM300900 23008KT P6SM VCSH BKN025
KZBW FIR / North America



MET'MAP, your aeronautical weather chart ! - Copyright ORBIFLY December 2007 - Disclaimer

ORBIFLY MET'MAP TEAM :

Programming & Development : Alexandra Zaïnal
Concept & original design : Baudouin d'Aumeries
Assistance for programming : Marc-Olivier Méhu
Technical & hardware support : Manuel Goepfert

Contact : metmap@orbifly.com




SOURCES & CREDITS :

   NOAA